createdAt,value
2018-04-22T00:00:04.309Z,17.50
2018-04-22T00:02:31.752Z,17.30
2018-04-22T00:04:59.282Z,17.87
2018-04-22T00:07:26.730Z,18.83
2018-04-22T00:09:54.165Z,17.73
2018-04-22T00:12:21.628Z,17.00
2018-04-22T00:14:49.059Z,17.40
2018-04-22T00:17:16.500Z,18.03
2018-04-22T00:19:43.954Z,16.07
2018-04-22T00:22:11.405Z,16.60
2018-04-22T00:24:38.905Z,17.50
2018-04-22T00:27:06.358Z,16.80
2018-04-22T00:29:33.785Z,16.97
2018-04-22T00:32:01.221Z,17.40
2018-04-22T00:34:28.739Z,18.03
2018-04-22T00:36:56.165Z,18.27
2018-04-22T00:39:23.597Z,16.50
2018-04-22T00:41:51.111Z,17.60
2018-04-22T00:44:18.541Z,16.30
2018-04-22T00:46:45.981Z,17.57
2018-04-22T00:49:13.432Z,16.90
2018-04-22T00:51:40.886Z,16.27
2018-04-22T00:54:20.297Z,17.97
2018-04-22T00:56:47.903Z,17.70
2018-04-22T00:59:15.335Z,17.10
2018-04-22T01:01:42.789Z,17.97
2018-04-22T01:04:10.230Z,17.90
2018-04-22T01:06:37.687Z,17.20
2018-04-22T01:09:06.078Z,17.40
2018-04-22T01:11:33.517Z,17.27
2018-04-22T01:14:00.949Z,18.40
2018-04-22T01:16:28.399Z,18.50
2018-04-22T01:18:55.847Z,18.20
2018-04-22T01:21:23.340Z,18.30
2018-04-22T01:23:50.777Z,18.97
2018-04-22T01:26:18.209Z,18.83
2018-04-22T01:28:45.654Z,18.40
2018-04-22T01:31:13.101Z,18.93
2018-04-22T01:33:40.531Z,18.90
2018-04-22T01:36:07.963Z,18.57
2018-04-22T01:38:35.433Z,18.37
2018-04-22T01:41:02.870Z,17.87
2018-04-22T01:43:30.308Z,20.47
2018-04-22T01:45:57.801Z,18.23
2018-04-22T01:48:25.330Z,18.27
2018-04-22T01:50:52.802Z,17.73
2018-04-22T01:53:20.238Z,19.40
2018-04-22T01:55:47.680Z,18.70
2018-04-22T01:58:15.189Z,17.53
2018-04-22T02:00:42.634Z,17.10
2018-04-22T02:03:10.069Z,18.03
2018-04-22T02:05:37.562Z,16.73
2018-04-22T02:08:05.005Z,18.30
2018-04-22T02:10:32.478Z,18.70
2018-04-22T02:12:59.905Z,19.23
2018-04-22T02:15:27.355Z,18.60
2018-04-22T02:17:54.785Z,19.23
2018-04-22T02:20:22.221Z,19.07
2018-04-22T02:22:49.664Z,20.10
2018-04-22T02:25:17.102Z,19.70
2018-04-22T02:27:44.538Z,18.67
2018-04-22T02:30:12.692Z,19.02
2018-04-22T02:32:40.133Z,18.50
2018-04-22T02:35:07.678Z,17.67
2018-04-22T02:37:35.125Z,18.20
2018-04-22T02:40:02.570Z,19.07
2018-04-22T02:42:30.010Z,18.13
2018-04-22T02:44:57.488Z,20.33
2018-04-22T02:47:24.921Z,18.60
2018-04-22T02:49:52.353Z,17.97
2018-04-22T02:52:19.797Z,41.70
2018-04-22T02:54:47.234Z,27.90
2018-04-22T02:57:14.670Z,20.03
2018-04-22T02:59:42.133Z,18.47
2018-04-22T03:02:09.604Z,18.30
2018-04-22T03:04:37.038Z,20.37
2018-04-22T03:07:04.478Z,17.80
2018-04-22T03:09:31.953Z,18.60
2018-04-22T03:11:59.393Z,18.77
2018-04-22T03:14:26.837Z,18.80
2018-04-22T03:16:54.321Z,18.80
2018-04-22T03:19:21.784Z,18.90
2018-04-22T03:21:49.236Z,19.67
2018-04-22T03:24:16.708Z,18.57
2018-04-22T03:26:44.156Z,20.07
2018-04-22T03:29:11.612Z,20.47
2018-04-22T03:31:39.046Z,19.57
2018-04-22T03:34:06.536Z,19.60
2018-04-22T03:36:33.988Z,20.43
2018-04-22T03:39:01.422Z,18.47
2018-04-22T03:41:29.318Z,19.90
2018-04-22T03:43:56.866Z,20.30
2018-04-22T03:46:24.296Z,18.00
2018-04-22T03:48:51.736Z,20.10
2018-04-22T03:51:19.181Z,18.00
2018-04-22T03:53:46.609Z,19.47
2018-04-22T03:56:14.070Z,19.27
2018-04-22T03:58:41.508Z,20.07
2018-04-22T04:01:08.951Z,19.43
2018-04-22T04:03:36.389Z,21.10
2018-04-22T04:06:03.872Z,20.20
2018-04-22T04:08:31.304Z,19.50
2018-04-22T04:10:58.736Z,20.00
2018-04-22T04:13:26.180Z,21.33
2018-04-22T04:15:53.627Z,20.60
2018-04-22T04:31:58.939Z,18.40
2018-04-22T04:34:26.370Z,19.70
2018-04-22T04:36:53.816Z,21.40
2018-04-22T04:39:21.304Z,20.73
2018-04-22T04:41:48.761Z,22.00
2018-04-22T04:44:16.226Z,21.10
2018-04-22T04:46:43.674Z,19.83
2018-04-22T04:49:11.119Z,21.60
2018-04-22T04:51:38.569Z,20.70
2018-04-22T04:54:06.013Z,22.10
2018-04-22T04:56:33.445Z,20.77
2018-04-22T04:59:00.934Z,21.47
2018-04-22T05:01:28.429Z,20.80
2018-04-22T05:03:55.857Z,20.93
2018-04-22T05:06:23.322Z,20.13
2018-04-22T05:08:50.782Z,21.50
2018-04-22T05:11:18.222Z,21.80
2018-04-22T05:13:45.712Z,20.77
2018-04-22T05:16:13.165Z,19.70
2018-04-22T05:18:40.605Z,19.73
2018-04-22T05:21:08.049Z,21.97
2018-04-22T05:23:35.520Z,20.00
2018-04-22T05:26:02.962Z,19.73
2018-04-22T05:28:30.406Z,21.03
2018-04-22T05:30:57.862Z,19.93
2018-04-22T05:33:25.313Z,20.33
2018-04-22T05:35:52.808Z,20.33
2018-04-22T05:38:20.256Z,19.37
2018-04-22T05:40:47.725Z,19.10
2018-04-22T05:43:15.163Z,19.50
2018-04-22T05:45:42.608Z,19.20
2018-04-22T05:48:10.113Z,18.50
2018-04-22T05:50:37.554Z,19.17
2018-04-22T05:53:04.997Z,19.27
2018-04-22T05:55:32.424Z,19.40
2018-04-22T05:57:59.865Z,20.23
2018-04-22T06:00:27.397Z,18.73
2018-04-22T06:02:54.833Z,19.50
2018-04-22T06:05:22.266Z,19.83
2018-04-22T06:07:49.713Z,19.17
2018-04-22T06:10:17.162Z,20.07
2018-04-22T06:12:44.613Z,19.17
2018-04-22T06:15:12.065Z,20.10
2018-04-22T06:17:39.509Z,20.40
2018-04-22T06:20:06.944Z,20.03
2018-04-22T06:22:34.416Z,18.97
2018-04-22T06:25:01.857Z,19.67
2018-04-22T06:27:29.306Z,19.37
2018-04-22T06:29:56.750Z,19.53
2018-04-22T06:32:24.193Z,19.23
2018-04-22T06:34:51.668Z,19.30
2018-04-22T06:37:19.158Z,19.47
2018-04-22T06:39:46.608Z,19.90
2018-04-22T06:42:14.068Z,18.63
2018-04-22T06:44:41.522Z,20.50
2018-04-22T06:47:08.965Z,20.10
2018-04-22T06:49:36.398Z,19.50
2018-04-22T06:52:03.908Z,20.03
2018-04-22T06:54:31.353Z,20.43
2018-04-22T06:56:58.789Z,20.67
2018-04-22T06:59:26.339Z,20.67
2018-04-22T07:01:53.849Z,21.80
2018-04-22T07:04:21.285Z,19.40
2018-04-22T07:06:48.738Z,25.10
2018-04-22T07:09:16.187Z,22.03
2018-04-22T07:11:43.623Z,21.80
2018-04-22T07:14:11.093Z,25.07
2018-04-22T07:16:38.600Z,24.63
2018-04-22T07:19:06.050Z,23.63
2018-04-22T07:21:33.537Z,22.83
2018-04-22T07:24:00.995Z,22.77
2018-04-22T07:26:28.436Z,23.03
2018-04-22T07:28:55.884Z,22.80
2018-04-22T07:31:23.319Z,21.00
2018-04-22T07:33:50.768Z,23.70
2018-04-22T07:36:18.215Z,23.13
2018-04-22T07:38:45.652Z,23.87
2018-04-22T07:41:13.095Z,24.50
2018-04-22T07:43:40.545Z,22.63
2018-04-22T07:46:07.969Z,22.37
2018-04-22T07:48:35.405Z,23.67
2018-04-22T07:51:02.865Z,20.80
2018-04-22T07:53:30.357Z,21.50
2018-04-22T07:55:57.773Z,22.30
2018-04-22T07:58:25.241Z,22.40
2018-04-22T08:00:52.685Z,21.30
2018-04-22T08:03:20.160Z,20.80
2018-04-22T08:05:47.617Z,21.63
2018-04-22T08:08:15.058Z,23.00
2018-04-22T08:10:42.502Z,20.53
2018-04-22T08:13:09.940Z,20.67
2018-04-22T08:15:37.394Z,20.53
2018-04-22T08:18:04.858Z,22.90
2018-04-22T08:20:32.305Z,19.77
2018-04-22T08:22:59.736Z,20.20
2018-04-22T08:25:27.165Z,19.50
2018-04-22T08:27:54.630Z,18.73
2018-04-22T08:30:22.075Z,20.50
2018-04-22T08:32:49.533Z,20.60
2018-04-22T08:35:16.983Z,21.90
2018-04-22T08:37:44.423Z,20.27
2018-04-22T08:40:11.905Z,16.53
2018-04-22T08:42:39.367Z,17.93
2018-04-22T08:45:06.804Z,18.77
2018-04-22T08:47:34.247Z,18.43
2018-04-22T08:50:01.706Z,18.33
2018-04-22T08:52:29.175Z,19.37
2018-04-22T08:54:56.616Z,17.73
2018-04-22T08:57:24.066Z,18.23
2018-04-22T08:59:51.586Z,19.63
2018-04-22T09:02:19.024Z,19.87
2018-04-22T09:04:46.468Z,16.97
2018-04-22T09:07:13.907Z,19.50
2018-04-22T09:09:41.345Z,18.17
2018-04-22T09:12:08.861Z,16.97
2018-04-22T09:14:36.302Z,13.40
2018-04-22T09:17:03.755Z,18.03
2018-04-22T09:19:31.295Z,17.13
2018-04-22T09:21:58.839Z,15.97
2018-04-22T09:24:26.260Z,17.10
2018-04-22T09:26:53.714Z,15.53
2018-04-22T09:29:21.262Z,17.90
2018-04-22T09:31:48.719Z,17.03
2018-04-22T09:34:16.170Z,15.50
2018-04-22T09:36:43.608Z,16.43
2018-04-22T09:39:11.085Z,16.50
2018-04-22T09:41:38.545Z,15.00
2018-04-22T09:44:05.977Z,14.83
2018-04-22T09:46:33.429Z,17.30
2018-04-22T09:49:00.887Z,19.33
2018-04-22T09:51:28.321Z,19.73
2018-04-22T09:53:55.749Z,17.20
2018-04-22T09:56:23.200Z,17.50
2018-04-22T09:58:50.641Z,21.17
2018-04-22T10:01:20.055Z,19.00
2018-04-22T10:03:47.496Z,18.17
2018-04-22T10:06:14.928Z,16.47
2018-04-22T10:08:42.429Z,16.87
2018-04-22T10:11:09.877Z,17.37
2018-04-22T10:13:37.308Z,15.73
2018-04-22T10:16:04.740Z,17.93
2018-04-22T10:18:32.240Z,17.33
2018-04-22T10:20:59.678Z,18.47
2018-04-22T10:23:27.127Z,19.40
2018-04-22T10:25:54.569Z,19.10
2018-04-22T10:28:22.078Z,19.20
2018-04-22T10:30:49.512Z,15.57
2018-04-22T10:33:16.988Z,16.80
2018-04-22T10:35:44.438Z,17.00
2018-04-22T10:38:11.877Z,17.77
2018-04-22T10:40:39.336Z,14.67
2018-04-22T10:43:06.815Z,13.47
2018-04-22T10:45:34.249Z,14.30
2018-04-22T10:48:01.734Z,16.50
2018-04-22T10:50:29.193Z,16.10
2018-04-22T10:52:56.637Z,14.70
2018-04-22T10:55:24.101Z,14.40
2018-04-22T10:57:51.582Z,16.50
2018-04-22T11:00:18.984Z,13.50
2018-04-22T11:02:46.429Z,14.10
2018-04-22T11:05:13.861Z,13.13
2018-04-22T11:07:41.293Z,15.40
2018-04-22T11:10:08.753Z,12.23
2018-04-22T11:12:36.307Z,11.50
2018-04-22T11:15:03.737Z,11.20
2018-04-22T11:17:31.184Z,10.37
2018-04-22T11:19:58.680Z,12.07
2018-04-22T11:22:26.134Z,12.70
2018-04-22T11:24:53.584Z,13.00
2018-04-22T11:27:21.018Z,10.30
2018-04-22T11:29:48.460Z,9.83
2018-04-22T11:32:15.916Z,10.73
2018-04-22T11:34:43.433Z,14.10
2018-04-22T11:37:10.864Z,10.27
2018-04-22T11:39:38.304Z,8.73
2018-04-22T11:42:05.733Z,8.60
2018-04-22T11:44:33.250Z,8.30
2018-04-22T11:47:00.693Z,8.30
2018-04-22T11:49:28.158Z,7.68
2018-04-22T11:51:55.589Z,7.00
2018-04-22T11:54:23.030Z,6.85
2018-04-22T11:56:50.453Z,8.32
2018-04-22T11:59:17.957Z,9.98
2018-04-22T12:01:45.413Z,7.75
2018-04-22T12:04:12.919Z,6.75
2018-04-22T12:06:40.360Z,6.85
2018-04-22T12:09:07.797Z,6.62
2018-04-22T12:11:35.221Z,6.60
2018-04-22T12:14:02.729Z,7.28
2018-04-22T12:16:30.169Z,7.62
2018-04-22T12:18:57.600Z,6.47
2018-04-22T12:21:25.097Z,5.90
2018-04-22T12:23:52.532Z,6.22
2018-04-22T12:26:19.954Z,5.82
2018-04-22T12:28:47.387Z,18.27
2018-04-22T12:31:14.872Z,6.37
2018-04-22T12:33:42.306Z,5.93
2018-04-22T12:36:09.732Z,6.80
2018-04-22T12:38:37.194Z,6.70
2018-04-22T12:41:04.622Z,5.22
2018-04-22T12:43:32.078Z,6.53
2018-04-22T12:45:59.511Z,6.12
2018-04-22T12:48:26.950Z,5.80
2018-04-22T12:50:54.367Z,6.05
2018-04-22T12:53:21.940Z,5.03
2018-04-22T12:55:49.409Z,6.70
2018-04-22T12:58:16.916Z,7.72
2018-04-22T13:00:44.373Z,9.05
2018-04-22T13:03:11.797Z,6.80
2018-04-22T13:05:39.219Z,6.32
2018-04-22T13:08:06.649Z,6.45
2018-04-22T13:10:34.120Z,7.10
2018-04-22T13:13:01.541Z,6.72
2018-04-22T13:15:29.045Z,7.15
2018-04-22T13:17:56.505Z,6.97
2018-04-22T13:20:23.934Z,6.60
2018-04-22T13:22:51.425Z,6.70
2018-04-22T13:25:18.851Z,6.97
2018-04-22T13:27:46.343Z,6.20
2018-04-22T13:30:13.781Z,6.85
2018-04-22T13:32:41.208Z,6.25
2018-04-22T13:35:08.632Z,5.80
2018-04-22T13:37:36.064Z,6.55
2018-04-22T13:40:03.488Z,6.43
2018-04-22T13:42:30.909Z,6.22
2018-04-22T13:44:58.345Z,6.45
2018-04-22T13:47:25.772Z,6.60
2018-04-22T13:49:53.188Z,7.12
2018-04-22T13:52:20.652Z,11.52
2018-04-22T13:54:48.087Z,6.75
2018-04-22T13:57:15.520Z,5.90
2018-04-22T13:59:42.953Z,5.62
2018-04-22T14:02:10.386Z,6.35
2018-04-22T14:04:37.797Z,6.22
2018-04-22T14:07:05.238Z,5.40
2018-04-22T14:09:32.657Z,5.97
2018-04-22T14:12:00.085Z,6.43
2018-04-22T14:14:27.587Z,5.93
2018-04-22T14:16:55.011Z,6.50
2018-04-22T14:19:22.434Z,6.28
2018-04-22T14:21:49.875Z,6.78
2018-04-22T14:24:17.310Z,5.62
2018-04-22T14:26:44.731Z,6.15
2018-04-22T14:29:12.169Z,6.75
2018-04-22T14:31:39.640Z,7.37
2018-04-22T14:34:07.068Z,6.90
2018-04-22T14:36:34.521Z,6.68
2018-04-22T14:39:01.977Z,6.20
2018-04-22T14:41:30.621Z,5.87
2018-04-22T14:44:09.888Z,6.20
2018-04-22T14:46:37.572Z,6.93
2018-04-22T14:49:05.818Z,6.22
2018-04-22T14:51:33.269Z,6.15
2018-04-22T14:54:00.693Z,6.75
2018-04-22T14:56:28.197Z,6.53
2018-04-22T14:58:55.637Z,6.15
2018-04-22T15:01:23.064Z,5.37
2018-04-22T15:03:50.588Z,6.20
2018-04-22T15:06:18.028Z,6.83
2018-04-22T15:08:45.502Z,14.83
2018-04-22T15:11:12.931Z,6.50
2018-04-22T15:13:40.409Z,6.53
2018-04-22T15:16:07.833Z,6.50
2018-04-22T15:18:35.264Z,7.47
2018-04-22T15:21:02.700Z,6.73
2018-04-22T15:23:30.125Z,7.20
2018-04-22T15:25:57.553Z,7.17
2018-04-22T15:28:24.985Z,7.00
2018-04-22T15:30:52.420Z,6.50
2018-04-22T15:33:19.896Z,6.53
2018-04-22T15:35:47.420Z,6.77
2018-04-22T15:38:14.882Z,7.00
2018-04-22T15:40:42.302Z,6.57
2018-04-22T15:43:09.788Z,7.13
2018-04-22T15:45:37.253Z,6.73
2018-04-22T15:48:04.681Z,7.17
2018-04-22T15:50:32.119Z,7.10
2018-04-22T15:52:59.628Z,6.53
2018-04-22T15:55:27.067Z,7.07
2018-04-22T15:57:54.511Z,7.37
2018-04-22T16:00:22.002Z,6.87
2018-04-22T16:02:49.434Z,7.33
2018-04-22T16:05:16.903Z,7.50
2018-04-22T16:07:44.366Z,6.40
2018-04-22T16:10:11.792Z,7.40
2018-04-22T16:12:39.234Z,7.33
2018-04-22T16:15:06.677Z,7.10
2018-04-22T16:17:34.164Z,7.80
2018-04-22T16:20:01.654Z,7.00
2018-04-22T16:22:29.080Z,7.57
2018-04-22T16:24:56.525Z,7.67
2018-04-22T16:27:24.019Z,7.27
2018-04-22T16:29:51.479Z,6.93
2018-04-22T16:32:18.904Z,6.50
2018-04-22T16:34:46.352Z,7.70
2018-04-22T16:37:13.776Z,6.70
2018-04-22T16:39:41.313Z,7.53
2018-04-22T16:42:08.821Z,7.37
2018-04-22T16:44:36.322Z,7.13
2018-04-22T16:47:03.752Z,6.97
2018-04-22T16:49:31.189Z,7.70
2018-04-22T16:51:58.614Z,7.77
2018-04-22T16:54:26.046Z,7.10
2018-04-22T16:56:53.484Z,8.97
2018-04-22T16:59:20.914Z,7.60
2018-04-22T17:01:48.446Z,7.27
2018-04-22T17:04:15.889Z,7.53
2018-04-22T17:06:43.311Z,7.30
2018-04-22T17:09:10.725Z,7.70
2018-04-22T17:11:38.165Z,7.20
2018-04-22T17:14:05.589Z,7.60
2018-04-22T17:16:33.133Z,10.50
2018-04-22T17:19:00.617Z,7.20
2018-04-22T17:21:28.081Z,7.53
2018-04-22T17:23:55.521Z,6.97
2018-04-22T17:26:22.963Z,7.67
2018-04-22T17:28:50.389Z,7.70
2018-04-22T17:31:17.812Z,8.20
2018-04-22T17:33:45.260Z,7.30
2018-04-22T17:36:12.729Z,7.37
2018-04-22T17:38:40.162Z,8.10
2018-04-22T17:41:07.619Z,7.90
2018-04-22T17:43:35.097Z,7.30
2018-04-22T17:46:02.585Z,7.90
2018-04-22T17:48:30.053Z,8.17
2018-04-22T17:50:57.489Z,12.40
2018-04-22T17:53:24.985Z,8.40
2018-04-22T17:55:52.466Z,8.43
2018-04-22T17:58:19.905Z,8.20
2018-04-22T18:00:47.329Z,7.50
2018-04-22T18:03:14.820Z,7.67
2018-04-22T18:05:42.259Z,10.50
2018-04-22T18:08:09.718Z,31.97
2018-04-22T18:10:37.174Z,12.80
2018-04-22T18:13:04.639Z,9.57
2018-04-22T18:15:32.206Z,8.97
2018-04-22T18:17:59.653Z,9.13
2018-04-22T18:20:27.102Z,8.27
2018-04-22T18:22:54.553Z,8.50
2018-04-22T18:25:22.009Z,8.53
2018-04-22T18:27:49.515Z,13.10
2018-04-22T18:30:16.932Z,27.60
2018-04-22T18:32:44.383Z,8.60
2018-04-22T18:35:11.898Z,7.73
2018-04-22T18:37:39.352Z,7.70
2018-04-22T18:40:06.794Z,8.17
2018-04-22T18:42:35.089Z,9.30
2018-04-22T18:45:02.576Z,11.50
2018-04-22T18:47:30.096Z,16.80
2018-04-22T18:49:57.545Z,10.47
2018-04-22T18:52:24.988Z,21.60
2018-04-22T18:54:52.472Z,10.20
2018-04-22T18:57:19.930Z,10.97
2018-04-22T18:59:47.388Z,10.03
2018-04-22T19:02:14.910Z,9.53
2018-04-22T19:04:42.434Z,11.90
2018-04-22T19:07:09.876Z,13.67
2018-04-22T19:09:37.325Z,9.20
2018-04-22T19:12:04.761Z,10.67
2018-04-22T19:14:32.197Z,9.80
2018-04-22T19:16:59.690Z,10.90
2018-04-22T19:19:27.122Z,10.43
2018-04-22T19:21:54.601Z,10.03
2018-04-22T19:24:22.071Z,9.20
2018-04-22T19:26:49.509Z,9.50
2018-04-22T19:29:16.937Z,9.93
2018-04-22T19:31:44.375Z,9.50
2018-04-22T19:34:11.813Z,10.47
2018-04-22T19:36:39.240Z,9.60
2018-04-22T19:39:06.686Z,22.87
2018-04-22T19:41:34.180Z,19.90
2018-04-22T19:44:01.610Z,12.90
2018-04-22T19:46:29.058Z,12.03
2018-04-22T19:48:56.489Z,25.07
2018-04-22T19:51:23.926Z,13.30
2018-04-22T19:53:51.381Z,10.30
2018-04-22T19:56:18.810Z,10.83
2018-04-22T19:58:46.345Z,10.73
2018-04-22T20:01:13.814Z,13.73
2018-04-22T20:03:41.248Z,10.80
2018-04-22T20:06:08.690Z,11.00
2018-04-22T20:08:36.138Z,11.10
2018-04-22T20:11:03.633Z,10.87
2018-04-22T20:13:31.069Z,9.80
2018-04-22T20:15:58.551Z,11.63
2018-04-22T20:18:25.986Z,12.80
2018-04-22T20:20:53.437Z,12.60
2018-04-22T20:23:20.881Z,12.20
2018-04-22T20:25:48.379Z,13.10
2018-04-22T20:28:15.825Z,11.17
2018-04-22T20:30:43.285Z,11.20
2018-04-22T20:33:10.721Z,12.87
2018-04-22T20:35:38.375Z,12.50
2018-04-22T20:38:06.032Z,12.03
2018-04-22T20:40:33.682Z,11.80
2018-04-22T20:43:01.248Z,11.83
2018-04-22T20:45:28.854Z,11.27
2018-04-22T20:47:56.377Z,11.47
2018-04-22T20:50:23.904Z,11.70
2018-04-22T20:52:51.364Z,13.00
2018-04-22T20:55:18.820Z,12.03
2018-04-22T20:57:46.337Z,12.47
2018-04-22T21:00:13.810Z,12.57
2018-04-22T21:02:41.245Z,12.00
2018-04-22T21:05:08.714Z,13.53
2018-04-22T21:07:36.162Z,12.70
2018-04-22T21:10:03.608Z,12.80
2018-04-22T21:12:31.081Z,13.30
2018-04-22T21:14:58.645Z,11.77
2018-04-22T21:17:26.101Z,10.93
2018-04-22T21:19:53.608Z,11.23
2018-04-22T21:22:21.058Z,12.20
2018-04-22T21:24:48.522Z,11.73
2018-04-22T21:27:15.959Z,13.77
2018-04-22T21:29:43.487Z,13.00
2018-04-22T21:32:10.930Z,14.90
2018-04-22T21:34:38.378Z,12.10
2018-04-22T21:37:05.866Z,12.70
2018-04-22T21:39:33.302Z,11.97
2018-04-22T21:42:00.779Z,11.50
2018-04-22T21:44:28.224Z,14.00
2018-04-22T21:46:55.659Z,12.67
2018-04-22T21:49:23.098Z,11.90
2018-04-22T21:51:50.597Z,11.70
2018-04-22T21:54:18.031Z,12.30
2018-04-22T21:56:45.507Z,13.57
2018-04-22T21:59:12.997Z,12.80
2018-04-22T22:01:40.436Z,12.70
2018-04-22T22:04:07.865Z,12.57
2018-04-22T22:06:35.316Z,13.13
2018-04-22T22:09:02.757Z,12.93
2018-04-22T22:11:30.193Z,12.87
2018-04-22T22:13:57.641Z,13.80
2018-04-22T22:16:25.077Z,12.00
2018-04-22T22:18:52.515Z,12.47
2018-04-22T22:21:20.003Z,12.53
2018-04-22T22:23:47.420Z,13.70
2018-04-22T22:26:14.853Z,14.50
2018-04-22T22:28:42.305Z,15.33
2018-04-22T22:31:09.816Z,14.00
2018-04-22T22:33:37.246Z,15.07
2018-04-22T22:36:04.727Z,14.83
2018-04-22T22:38:32.159Z,14.57
2018-04-22T22:40:59.592Z,13.47
2018-04-22T22:43:27.042Z,14.13
2018-04-22T22:45:54.482Z,14.00
2018-04-22T22:48:21.911Z,13.20
2018-04-22T22:50:49.364Z,14.13
2018-04-22T22:53:16.803Z,13.70
2018-04-22T22:55:44.249Z,14.50
2018-04-22T22:58:11.733Z,13.73
2018-04-22T23:00:39.171Z,13.30
2018-04-22T23:03:06.609Z,14.10
2018-04-22T23:05:34.045Z,14.30
2018-04-22T23:08:01.477Z,14.52
2018-04-22T23:10:28.924Z,14.30
2018-04-22T23:12:56.373Z,15.53
2018-04-22T23:15:23.902Z,14.10
2018-04-22T23:17:51.365Z,15.43
2018-04-22T23:20:18.863Z,14.80
2018-04-22T23:22:46.300Z,15.30
2018-04-22T23:25:13.767Z,16.13
2018-04-22T23:27:41.212Z,15.30
2018-04-22T23:30:08.654Z,15.75
2018-04-22T23:32:36.088Z,13.60
2018-04-22T23:35:03.534Z,15.73
2018-04-22T23:37:30.972Z,15.83
2018-04-22T23:39:58.406Z,14.87
2018-04-22T23:42:25.859Z,16.03
2018-04-22T23:44:53.298Z,15.50
2018-04-22T23:47:20.733Z,14.80
2018-04-22T23:49:48.181Z,15.57
2018-04-22T23:52:15.788Z,16.00
2018-04-22T23:54:43.229Z,14.77
2018-04-22T23:57:10.673Z,16.87
2018-04-22T23:59:38.111Z,15.87
